Time;durP1;ratioP1;P1;durP2;ratioP2;P2;SDS_P1;SDS_P2;PMS_P1;PMS_P2;Temp;Humidity;BMP_temperature;BMP_pressure;BME280_temperature;BME280_humidity;BME280_pressure;Samples;Min_cycle;Max_cycle;Signal;HPM_P1;HPM_P2
2022/10/25 00:01:14;;;;;;;33.20;16.83;;;;;;;13.15;82.23;95496.53;5048712;28;21269;-71
2022/10/25 00:03:41;;;;;;;28.15;17.77;;;;;;;13.11;81.81;95503.47;5048855;28;20225;-71
2022/10/25 00:06:09;;;;;;;36.42;16.98;;;;;;;12.98;82.58;95507.34;5048190;28;22106;-71
2022/10/25 00:08:36;;;;;;;34.13;16.65;;;;;;;13.01;81.98;95507.25;5047490;28;20747;-71
2022/10/25 00:11:03;;;;;;;38.97;17.50;;;;;;;13.05;81.67;95505.41;5047868;28;20206;-70
2022/10/25 00:13:30;;;;;;;45.97;19.73;;;;;;;12.87;82.96;95507.72;5048739;28;20264;-72
2022/10/25 00:15:57;;;;;;;36.10;18.10;;;;;;;12.89;83.06;95505.13;5048397;28;20199;-71
2022/10/25 00:18:25;;;;;;;46.15;19.63;;;;;;;12.95;82.47;95500.63;5046802;28;20256;-64
2022/10/25 00:20:53;;;;;;;29.02;17.17;;;;;;;12.56;83.80;95502.88;5047914;28;20226;-73
2022/10/25 00:23:20;;;;;;;30.10;17.90;;;;;;;12.48;84.42;95516.75;5048395;28;20315;-72
2022/10/25 00:25:47;;;;;;;34.80;16.45;;;;;;;12.60;83.77;95519.72;5048329;28;21713;-71
2022/10/25 00:28:13;;;;;;;26.65;14.88;;;;;;;12.51;83.95;95514.09;5048755;28;20660;-71
2022/10/25 00:30:40;;;;;;;37.90;17.10;;;;;;;12.54;83.24;95514.00;5048698;28;20212;-71
2022/10/25 00:33:07;;;;;;;40.75;16.92;;;;;;;12.58;83.56;95510.47;5047026;28;20210;-71
2022/10/25 00:35:36;;;;;;;35.00;17.90;;;;;;;12.52;83.16;95505.56;5047023;28;20222;-71
2022/10/25 00:38:03;;;;;;;36.70;19.42;;;;;;;12.53;83.85;95502.13;5046299;28;20314;-71
2022/10/25 00:40:30;;;;;;;35.35;19.45;;;;;;;12.60;83.42;95503.59;5047048;28;20206;-72
2022/10/25 00:42:57;;;;;;;37.22;17.95;;;;;;;12.60;83.85;95499.34;5046914;28;20202;-71
2022/10/25 00:45:26;;;;;;;44.58;18.60;;;;;;;12.58;83.85;95502.81;5047593;28;20261;-71
2022/10/25 00:47:57;;;;;;;34.63;16.30;;;;;;;12.34;84.52;95494.28;5047779;28;20206;-71
2022/10/25 00:50:41;;;;;;;29.30;17.15;;;;;;;12.09;84.93;95491.72;5048719;28;22143;-71
2022/10/25 00:53:13;;;;;;;30.88;15.00;;;;;;;11.97;86.01;95504.84;5048671;28;20206;-71
2022/10/25 00:55:46;;;;;;;30.27;15.13;;;;;;;11.84;86.69;95493.38;5048454;28;20268;-71
2022/10/25 00:58:16;;;;;;;28.48;14.20;;;;;;;11.99;86.42;95490.34;5048425;28;20850;-71
2022/10/25 01:00:45;;;;;;;26.17;14.20;;;;;;;11.64;88.16;95491.41;5048398;28;20211;-72
2022/10/25 01:03:13;;;;;;;26.88;13.90;;;;;;;11.58;88.16;95479.72;5048042;28;20739;-71
2022/10/25 01:05:41;;;;;;;34.33;15.90;;;;;;;11.65;88.31;95487.16;5048860;28;20241;-72
2022/10/25 01:08:08;;;;;;;33.13;13.90;;;;;;;11.76;87.96;95477.47;5047629;28;20789;-71
2022/10/25 01:10:34;;;;;;;27.58;14.95;;;;;;;11.50;88.55;95479.13;5051602;28;20326;-72
2022/10/25 01:13:02;;;;;;;29.15;15.82;;;;;;;11.47;89.30;95478.38;5052023;28;20263;-71
2022/10/25 01:15:37;;;;;;;28.17;16.38;;;;;;;11.74;88.29;95484.31;5052775;28;20279;-71
2022/10/25 01:18:12;;;;;;;33.10;15.10;;;;;;;11.90;86.74;95490.63;5051605;28;20214;-71
2022/10/25 01:21:05;;;;;;;28.50;14.93;;;;;;;12.09;85.62;95491.72;5051826;28;20213;-71
2022/10/25 01:23:52;;;;;;;38.95;15.95;;;;;;;12.02;85.68;95485.16;5050898;28;20800;-71
2022/10/25 01:26:49;;;;;;;31.13;14.27;;;;;;;12.00;85.63;95489.47;5052245;28;20238;-71
2022/10/25 01:29:46;;;;;;;32.10;15.70;;;;;;;11.97;85.92;95491.28;5051250;28;20260;-71
2022/10/25 01:32:20;;;;;;;38.42;15.27;;;;;;;12.10;85.00;95487.47;5051918;28;20202;-72
2022/10/25 01:34:56;;;;;;;30.65;14.32;;;;;;;12.13;84.84;95488.16;5052322;28;20343;-71
2022/10/25 01:37:30;;;;;;;25.63;14.27;;;;;;;12.17;84.16;95484.63;5050769;28;20833;-72
2022/10/25 01:40:03;;;;;;;33.97;15.07;;;;;;;11.99;84.96;95480.16;5051469;28;20679;-71
2022/10/25 01:42:38;;;;;;;23.35;13.63;;;;;;;11.72;86.07;95475.91;5051141;28;20206;-72
2022/10/25 01:45:11;;;;;;;27.60;12.60;;;;;;;11.56;87.00;95470.47;5051144;28;20317;-72
2022/10/25 01:47:44;;;;;;;31.13;12.65;;;;;;;11.56;87.40;95475.56;5051116;28;20580;-72
2022/10/25 01:50:14;;;;;;;29.38;13.38;;;;;;;11.54;86.63;95467.13;5051138;28;20198;-71
2022/10/25 01:52:40;;;;;;;25.48;12.30;;;;;;;11.49;87.10;95474.91;5050691;28;20203;-71
2022/10/25 01:55:11;;;;;;;19.63;10.63;;;;;;;11.40;87.19;95467.53;5051402;28;20206;-71
2022/10/25 01:57:55;;;;;;;25.15;11.63;;;;;;;11.47;87.24;95469.03;5050276;28;20288;-71
2022/10/25 02:00:23;;;;;;;23.88;12.02;;;;;;;11.75;85.82;95471.56;5051028;28;20210;-71
2022/10/25 02:03:10;;;;;;;21.15;12.10;;;;;;;11.75;85.70;95474.09;5050305;28;20288;-72
2022/10/25 02:05:47;;;;;;;28.20;14.32;;;;;;;11.85;85.10;95472.13;5050696;28;20658;-72
2022/10/25 02:08:24;;;;;;;31.63;12.95;;;;;;;11.97;84.89;95464.09;5050155;28;20218;-71
2022/10/25 02:11:01;;;;;;;28.92;12.30;;;;;;;12.06;84.24;95466.34;5050450;28;20634;-71
2022/10/25 02:13:33;;;;;;;26.63;12.88;;;;;;;12.00;84.20;95466.53;5050228;28;20337;-71
2022/10/25 02:16:05;;;;;;;24.33;11.98;;;;;;;11.62;85.14;95466.91;5051194;28;20213;-71
2022/10/25 02:18:36;;;;;;;19.70;11.73;;;;;;;11.37;86.27;95465.13;5049781;28;20259;-71
2022/10/25 02:21:05;;;;;;;27.75;11.00;;;;;;;11.24;87.06;95466.34;5050995;28;20256;-71
2022/10/25 02:23:35;;;;;;;31.00;11.60;;;;;;;11.16;87.57;95465.72;5049921;28;20269;-72
2022/10/25 02:26:06;;;;;;;21.70;12.13;;;;;;;10.95;88.35;95456.19;5051220;28;20649;-71
2022/10/25 02:28:35;;;;;;;22.60;11.00;;;;;;;10.84;89.19;95464.97;5050266;28;20256;-71
2022/10/25 02:31:03;;;;;;;17.45;10.48;;;;;;;10.77;89.80;95460.09;5050511;28;20264;-71
2022/10/25 02:33:29;;;;;;;22.40;11.07;;;;;;;10.78;89.92;95460.03;5050236;28;20260;-72
2022/10/25 02:36:12;;;;;;;22.23;12.48;;;;;;;11.05;89.12;95460.13;5050022;28;20221;-71
2022/10/25 02:38:39;;;;;;;17.08;10.38;;;;;;;11.24;87.69;95468.88;5049563;28;20210;-72
2022/10/25 02:41:07;;;;;;;21.70;11.52;;;;;;;11.41;86.67;95466.66;5049965;28;20692;-72
2022/10/25 02:43:34;;;;;;;23.90;11.65;;;;;;;11.58;85.70;95468.72;5049323;28;20928;-71
2022/10/25 02:46:05;;;;;;;23.17;11.38;;;;;;;11.55;85.76;95466.25;5050660;28;20226;-72
2022/10/25 02:48:32;;;;;;;17.58;11.43;;;;;;;11.63;85.43;95458.38;5049760;28;20279;-71
2022/10/25 02:50:58;;;;;;;30.20;10.63;;;;;;;11.48;85.62;95457.97;5049699;28;20647;-71
2022/10/25 02:53:26;;;;;;;20.70;10.82;;;;;;;11.49;85.77;95459.63;5049729;28;20222;-71
2022/10/25 02:56:00;;;;;;;28.17;10.98;;;;;;;11.59;85.07;95458.47;5049779;28;20230;-71
2022/10/25 02:58:29;;;;;;;21.00;11.15;;;;;;;11.63;84.63;95460.94;5049562;28;20567;-71
2022/10/25 03:00:56;;;;;;;23.70;11.55;;;;;;;11.63;84.22;95464.28;5049195;28;20210;-71
2022/10/25 03:03:23;;;;;;;26.02;10.90;;;;;;;11.57;84.38;95457.69;5049510;28;20202;-71
2022/10/25 03:05:50;;;;;;;21.92;11.60;;;;;;;11.57;85.36;95452.59;5049309;28;20306;-71
2022/10/25 03:08:17;;;;;;;25.75;11.88;;;;;;;11.32;85.70;95451.69;5049867;28;20218;-71
2022/10/25 03:10:45;;;;;;;28.27;13.20;;;;;;;11.04;86.88;95455.91;5048492;28;20207;-71
2022/10/25 03:13:11;;;;;;;24.05;12.60;;;;;;;10.78;88.01;95449.03;5050438;28;20291;-71
2022/10/25 03:15:38;;;;;;;23.95;12.27;;;;;;;10.68;88.85;95447.63;5049460;28;20259;-71
2022/10/25 03:18:05;;;;;;;27.63;11.30;;;;;;;10.74;88.63;95453.38;5048796;28;20648;-70
2022/10/25 03:20:32;;;;;;;22.83;13.32;;;;;;;11.01;87.90;95459.38;5047829;28;20247;-70
2022/10/25 03:22:59;;;;;;;34.75;14.88;;;;;;;11.16;86.60;95455.53;5047383;28;20238;-71
2022/10/25 03:25:25;;;;;;;18.00;12.07;;;;;;;11.20;86.87;95450.34;5048317;28;20222;-71
2022/10/25 03:27:53;;;;;;;21.60;11.95;;;;;;;11.30;86.06;95455.16;5047938;28;20303;-71
2022/10/25 03:30:21;;;;;;;21.10;12.00;;;;;;;11.39;85.65;95460.78;5048114;28;20683;-70
2022/10/25 03:32:47;;;;;;;20.70;11.80;;;;;;;11.44;84.80;95450.47;5047043;28;20283;-71
2022/10/25 03:35:14;;;;;;;29.13;14.23;;;;;;;11.30;85.43;95452.59;5048509;28;22227;-71
2022/10/25 03:37:41;;;;;;;24.20;11.75;;;;;;;11.08;86.15;95457.50;5048689;28;21161;-70
2022/10/25 03:40:09;;;;;;;23.13;12.90;;;;;;;11.10;85.96;95456.59;5048563;28;20266;-71
2022/10/25 03:42:35;;;;;;;33.13;14.73;;;;;;;11.15;86.15;95452.16;5048397;28;20217;-71
2022/10/25 03:45:04;;;;;;;24.33;13.82;;;;;;;11.14;85.89;95442.88;5049575;28;20276;-71
2022/10/25 03:47:31;;;;;;;59.05;30.70;;;;;;;10.74;87.71;95448.28;5049028;28;20226;-71
2022/10/25 03:49:58;;;;;;;67.45;35.03;;;;;;;10.50;89.51;95459.13;5049282;28;20773;-71
2022/10/25 03:52:24;;;;;;;35.03;16.85;;;;;;;10.20;91.99;95453.97;5050042;28;20199;-70
2022/10/25 03:54:51;;;;;;;27.30;14.13;;;;;;;10.06;93.88;95448.41;5050016;28;20676;-71
2022/10/25 03:57:18;;;;;;;28.92;14.15;;;;;;;10.01;93.36;95445.13;5048881;28;20209;-70
2022/10/25 03:59:45;;;;;;;29.50;13.98;;;;;;;9.97;93.70;95453.69;5048978;28;20209;-71
2022/10/25 04:02:14;;;;;;;35.35;16.08;;;;;;;10.28;93.05;95451.25;5048271;28;20226;-70
2022/10/25 04:04:41;;;;;;;33.30;14.77;;;;;;;10.71;90.56;95453.44;5048917;28;20303;-72
2022/10/25 04:07:07;;;;;;;32.70;15.15;;;;;;;10.91;88.62;95451.19;5048365;28;20230;-70
2022/10/25 04:09:34;;;;;;;24.63;13.35;;;;;;;10.75;88.83;95444.88;5048912;28;20214;-70
2022/10/25 04:12:01;;;;;;;28.00;15.02;;;;;;;10.83;88.69;95442.94;5047717;28;20750;-70
2022/10/25 04:14:27;;;;;;;51.83;26.25;;;;;;;10.98;88.49;95446.75;5048818;28;20210;-70
2022/10/25 04:16:54;;;;;;;40.03;20.60;;;;;;;11.06;87.90;95449.91;5048499;28;20206;-70
2022/10/25 04:19:22;;;;;;;32.67;17.70;;;;;;;10.82;88.79;95446.38;5049311;28;20705;-72
2022/10/25 04:21:49;;;;;;;30.42;16.23;;;;;;;10.79;88.78;95449.00;5048310;28;20442;-72
2022/10/25 04:24:16;;;;;;;28.58;14.73;;;;;;;10.79;89.22;95451.53;5048561;28;20272;-71
2022/10/25 04:26:43;;;;;;;30.63;14.43;;;;;;;10.50;89.75;95452.34;5048724;28;21038;-72
2022/10/25 04:29:10;;;;;;;33.28;15.13;;;;;;;10.75;89.25;95464.38;5048107;28;20234;-71
2022/10/25 04:31:37;;;;;;;26.52;15.20;;;;;;;10.94;88.04;95457.06;5049783;28;20210;-71
2022/10/25 04:34:04;;;;;;;37.75;14.85;;;;;;;11.00;87.75;95459.44;5048450;28;20202;-71
2022/10/25 04:36:32;;;;;;;32.28;15.75;;;;;;;10.95;87.64;95464.63;5048757;28;20202;-71
2022/10/25 04:38:59;;;;;;;29.23;15.20;;;;;;;11.00;88.25;95467.88;5048783;28;21556;-72
2022/10/25 04:41:25;;;;;;;43.92;17.02;;;;;;;11.04;87.86;95455.91;5048224;28;20214;-71
2022/10/25 04:43:52;;;;;;;72.05;30.58;;;;;;;11.14;87.77;95453.06;5047820;28;20688;-71
2022/10/25 04:46:19;;;;;;;76.55;38.72;;;;;;;11.16;87.61;95455.53;5052980;28;20249;-71
2022/10/25 04:48:47;;;;;;;57.45;27.60;;;;;;;11.12;87.63;95461.63;5051981;28;20555;-71
2022/10/25 04:51:14;;;;;;;38.33;22.10;;;;;;;11.14;87.71;95462.38;5053047;28;20207;-72
2022/10/25 04:53:42;;;;;;;52.72;25.45;;;;;;;11.30;86.79;95462.78;5051193;28;20206;-72
2022/10/25 04:56:10;;;;;;;59.55;25.90;;;;;;;11.24;86.52;95462.09;5051916;28;20318;-71
2022/10/25 04:58:37;;;;;;;55.13;27.13;;;;;;;11.17;86.40;95468.22;5051754;28;20794;-71
2022/10/25 05:01:06;;;;;;;57.75;27.70;;;;;;;11.12;87.21;95467.56;5052599;28;20217;-69
2022/10/25 05:03:33;;;;;;;67.38;29.25;;;;;;;11.22;86.66;95465.56;5051026;28;20287;-72
2022/10/25 05:06:11;;;;;;;66.05;29.92;;;;;;;11.22;86.59;95465.56;5052068;28;20221;-70
2022/10/25 05:08:39;;;;;;;50.85;26.20;;;;;;;10.79;88.20;95464.25;5051861;28;20268;-70
2022/10/25 05:11:08;;;;;;;60.22;20.48;;;;;;;10.55;89.48;95462.38;5052520;28;20214;-71
2022/10/25 05:13:36;;;;;;;41.95;18.55;;;;;;;10.85;88.64;95466.63;5051398;28;20723;-71
2022/10/25 05:16:04;;;;;;;44.03;19.95;;;;;;;10.77;88.35;95477.88;5051322;28;20327;-71
2022/10/25 05:18:31;;;;;;;47.78;18.63;;;;;;;10.72;88.83;95465.28;5051365;28;20757;-71
2022/10/25 05:21:00;;;;;;;29.38;15.93;;;;;;;10.75;88.62;95467.75;5052122;28;20255;-71
2022/10/25 05:23:28;;;;;;;42.45;18.88;;;;;;;10.64;89.18;95466.41;5050838;28;20238;-71
2022/10/25 05:26:01;;;;;;;34.08;16.55;;;;;;;10.89;88.51;95473.25;5051399;28;20597;-71
2022/10/25 05:28:29;;;;;;;30.48;16.60;;;;;;;11.14;87.21;95480.19;5051600;28;20205;-70
2022/10/25 05:30:56;;;;;;;46.95;17.45;;;;;;;11.15;87.39;95480.16;5051634;28;20206;-71
2022/10/25 05:33:22;;;;;;;27.40;16.58;;;;;;;11.39;86.21;95486.22;5051194;28;20210;-71
2022/10/25 05:35:49;;;;;;;45.38;18.05;;;;;;;11.66;85.91;95497.28;5051480;28;20237;-71
2022/10/25 05:38:16;;;;;;;47.60;21.50;;;;;;;12.15;83.63;95496.59;5051431;28;20264;-71
2022/10/25 05:40:44;;;;;;;60.72;24.35;;;;;;;12.39;82.55;95504.31;5051563;28;20230;-70
2022/10/25 05:43:11;;;;;;;48.10;22.45;;;;;;;12.80;80.25;95506.28;5051432;28;20216;-70
2022/10/25 05:45:39;;;;;;;50.53;20.92;;;;;;;12.98;79.09;95503.97;5050783;28;20794;-70
2022/10/25 05:48:06;;;;;;;42.22;19.88;;;;;;;12.94;79.51;95524.47;5050912;28;20881;-70
2022/10/25 05:50:32;;;;;;;47.03;19.83;;;;;;;13.00;79.34;95517.50;5050492;28;20291;-72
2022/10/25 05:52:59;;;;;;;41.13;21.80;;;;;;;13.25;78.74;95528.53;5050839;28;20267;-73
2022/10/25 05:55:26;;;;;;;45.85;22.73;;;;;;;13.80;77.10;95521.34;5050920;28;20229;-70
2022/10/25 05:57:52;;;;;;;49.78;19.38;;;;;;;13.87;75.66;95532.97;5050596;28;20268;-73
2022/10/25 06:00:19;;;;;;;39.10;19.08;;;;;;;13.17;78.83;95520.31;5051443;28;21029;-72
2022/10/25 06:02:47;;;;;;;43.72;19.13;;;;;;;12.90;81.05;95535.66;5051535;28;20234;-73
2022/10/25 06:05:14;;;;;;;43.35;19.17;;;;;;;13.44;79.08;95538.88;5051336;28;20323;-71
2022/10/25 06:07:41;;;;;;;50.38;18.55;;;;;;;13.78;76.99;95533.34;5050672;28;20231;-71
2022/10/25 06:10:09;;;;;;;47.90;19.33;;;;;;;14.15;76.06;95538.66;5051707;28;20210;-72
2022/10/25 06:12:35;;;;;;;43.60;17.48;;;;;;;14.90;73.67;95535.59;5051106;28;20252;-72
2022/10/25 06:15:02;;;;;;;40.05;17.63;;;;;;;14.54;73.71;95540.53;5051778;28;20610;-72
2022/10/25 06:17:29;;;;;;;45.05;18.00;;;;;;;14.16;75.59;95537.78;5050524;28;20623;-72
2022/10/25 06:19:57;;;;;;;43.45;18.42;;;;;;;13.94;76.55;95534.41;5051839;28;20683;-72
2022/10/25 06:22:24;;;;;;;40.47;17.70;;;;;;;13.81;77.72;95530.66;5050673;28;20250;-72
2022/10/25 06:24:50;;;;;;;42.88;15.60;;;;;;;13.63;78.56;95540.69;5051460;28;20211;-72
2022/10/25 06:27:17;;;;;;;38.72;17.92;;;;;;;13.55;78.71;95532.50;5051961;28;20283;-71
2022/10/25 06:29:44;;;;;;;38.28;16.95;;;;;;;13.83;77.80;95521.22;5051902;28;20285;-71
2022/10/25 06:32:10;;;;;;;43.05;19.20;;;;;;;14.11;77.34;95521.78;5052359;28;20283;-74
2022/10/25 06:34:37;;;;;;;44.03;19.25;;;;;;;14.21;76.78;95535.03;5052376;28;20198;-71
2022/10/25 06:37:05;;;;;;;43.53;20.25;;;;;;;14.55;75.55;95526.84;5051887;28;20602;-71
2022/10/25 06:39:32;;;;;;;49.67;20.58;;;;;;;14.69;76.17;95533.94;5052736;28;20206;-71
2022/10/25 06:41:59;;;;;;;46.20;19.58;;;;;;;14.87;75.18;95531.44;5051986;28;20202;-73
2022/10/25 06:44:26;;;;;;;54.50;25.33;;;;;;;15.36;73.46;95536.97;5051839;28;20955;-71
2022/10/25 06:46:53;;;;;;;38.03;20.60;;;;;;;15.76;71.85;95533.47;5051157;28;20266;-71
2022/10/25 06:49:20;;;;;;;45.55;22.55;;;;;;;16.15;70.35;95530.75;5050665;28;20199;-72
2022/10/25 06:51:46;;;;;;;61.17;23.50;;;;;;;16.31;69.39;95524.00;5050811;28;20202;-71
2022/10/25 06:54:14;;;;;;;47.45;21.02;;;;;;;16.38;68.90;95524.50;5050985;28;20202;-71
2022/10/25 06:56:41;;;;;;;35.78;18.30;;;;;;;16.69;67.96;95523.03;5051172;28;20254;-71
2022/10/25 06:59:08;;;;;;;37.50;18.50;;;;;;;16.64;67.79;95521.53;5050137;28;20206;-72
2022/10/25 07:01:34;;;;;;;42.35;18.88;;;;;;;16.52;68.67;95522.09;5051021;28;20226;-72
2022/10/25 07:04:03;;;;;;;37.95;18.98;;;;;;;16.47;68.54;95518.09;5050421;28;20291;-71
2022/10/25 07:06:34;;;;;;;47.78;19.02;;;;;;;15.98;70.27;95528.16;5049838;28;20287;-71
2022/10/25 07:09:01;;;;;;;52.03;19.52;;;;;;;15.90;70.40;95527.69;5050164;28;20207;-72
2022/10/25 07:11:31;;;;;;;46.60;20.77;;;;;;;15.85;70.24;95533.03;5051594;28;20206;-71
2022/10/25 07:14:00;;;;;;;50.22;20.98;;;;;;;15.63;70.64;95538.31;5050316;28;20210;-71
2022/10/25 07:16:28;;;;;;;59.42;21.00;;;;;;;15.47;71.09;95523.69;5050402;28;20217;-71
2022/10/25 07:18:58;;;;;;;50.50;20.55;;;;;;;15.16;71.56;95508.84;5050075;28;20737;-72
2022/10/25 07:21:25;;;;;;;45.28;19.77;;;;;;;14.79;72.75;95514.75;5050208;28;20704;-72
2022/10/25 07:23:52;;;;;;;62.30;21.65;;;;;;;15.02;72.95;95511.22;5049206;28;20784;-70
2022/10/25 07:26:20;;;;;;;54.42;20.38;;;;;;;15.82;70.28;95519.53;5049964;28;20229;-71
2022/10/25 07:28:50;;;;;;;60.05;21.08;;;;;;;16.50;67.50;95510.25;5049044;28;20202;-70
2022/10/25 07:31:19;;;;;;;44.85;19.92;;;;;;;16.89;65.95;95515.16;5048437;28;20259;-70
2022/10/25 07:33:46;;;;;;;53.03;20.50;;;;;;;17.33;64.29;95520.53;5049556;28;20217;-71
2022/10/25 07:36:13;;;;;;;48.10;19.52;;;;;;;18.68;60.73;95514.81;5050157;28;20627;-75
2022/10/25 07:38:40;;;;;;;65.75;19.92;;;;;;;21.38;53.64;95501.88;5049998;28;20206;-73
2022/10/25 07:41:07;;;;;;;42.47;19.40;;;;;;;22.09;50.38;95510.69;5051434;28;20214;-71
2022/10/25 07:43:34;;;;;;;56.00;20.63;;;;;;;21.07;52.64;95507.44;5050520;28;20260;-74
2022/10/25 07:46:02;;;;;;;59.28;22.70;;;;;;;20.87;53.61;95511.38;5051417;28;20245;-73
2022/10/25 07:48:29;;;;;;;55.47;21.67;;;;;;;21.31;52.32;95499.81;5051154;28;20276;-73
2022/10/25 07:50:59;;;;;;;55.42;20.27;;;;;;;21.72;51.19;95494.34;5050879;28;21798;-74
2022/10/25 07:53:26;;;;;;;49.10;21.88;;;;;;;21.61;50.81;95491.69;5051411;28;20206;-72
2022/10/25 07:55:55;;;;;;;59.33;20.58;;;;;;;22.46;48.96;95484.72;5051837;28;20287;-73
2022/10/25 07:58:22;;;;;;;62.33;21.45;;;;;;;23.40;46.57;95483.59;5050914;28;20291;-73
2022/10/25 08:00:49;;;;;;;49.95;20.73;;;;;;;24.33;45.32;95483.16;5049327;28;20295;-71
2022/10/25 08:03:18;;;;;;;47.03;20.67;;;;;;;26.21;41.40;95478.44;5048089;28;20202;-71
2022/10/25 08:05:46;;;;;;;45.67;19.77;;;;;;;28.27;36.76;95466.09;5048715;28;20299;-71
2022/10/25 08:08:13;;;;;;;47.03;18.20;;;;;;;28.94;35.17;95480.41;5047090;28;20658;-72
2022/10/25 08:10:42;;;;;;;49.42;18.55;;;;;;;29.61;33.57;95478.00;5047056;28;20228;-71
2022/10/25 08:13:09;;;;;;;44.25;19.00;;;;;;;30.66;32.19;95474.84;5046844;28;20206;-74
2022/10/25 08:15:35;;;;;;;37.75;19.50;;;;;;;31.26;30.90;95471.81;5049259;28;20633;-73
2022/10/25 08:18:03;;;;;;;45.20;19.92;;;;;;;32.05;29.86;95465.59;5048425;28;20210;-71
2022/10/25 08:20:31;;;;;;;53.38;20.85;;;;;;;31.94;29.43;95460.69;5050503;28;20210;-73
2022/10/25 08:22:58;;;;;;;45.22;18.90;;;;;;;30.98;30.31;95453.78;5049183;28;20295;-71
2022/10/25 08:25:25;;;;;;;43.88;18.30;;;;;;;31.83;29.34;95451.41;5049213;28;20259;-74
2022/10/25 08:27:52;;;;;;;37.72;16.52;;;;;;;31.77;29.50;95445.03;5047165;28;20222;-71
2022/10/25 08:30:19;;;;;;;40.70;16.83;;;;;;;31.74;29.15;95455.88;5047899;28;20210;-72
2022/10/25 08:32:46;;;;;;;40.70;18.00;;;;;;;31.55;29.40;95445.78;5047454;28;20237;-70
2022/10/25 08:35:14;;;;;;;38.42;17.05;;;;;;;31.13;30.50;95445.25;5048458;28;20264;-70
2022/10/25 08:37:42;;;;;;;40.70;16.85;;;;;;;33.14;27.40;95441.56;5047489;28;20213;-71
2022/10/25 08:40:17;;;;;;;46.08;18.08;;;;;;;33.60;26.94;95444.84;5048264;28;20252;-71
2022/10/25 08:42:58;;;;;;;43.30;16.95;;;;;;;34.40;25.72;95446.56;5047290;28;20315;-71
2022/10/25 08:45:33;;;;;;;28.20;12.60;;;;;;;35.04;25.08;95434.13;5047936;28;21209;-73
2022/10/25 08:48:02;;;;;;;38.03;11.02;;;;;;;34.93;24.02;95420.59;5048153;28;20750;-72
2022/10/25 08:50:38;;;;;;;26.80;11.48;;;;;;;34.08;25.52;95432.03;5048500;28;20619;-72
2022/10/25 08:53:12;;;;;;;42.30;14.02;;;;;;;33.90;26.08;95423.72;5048092;28;20202;-73
2022/10/25 08:55:41;;;;;;;40.25;14.43;;;;;;;33.23;27.15;95427.28;5050269;28;20654;-71
2022/10/25 08:58:14;;;;;;;32.53;14.57;;;;;;;34.24;25.11;95423.03;5050069;28;20214;-72
2022/10/25 09:00:44;;;;;;;35.17;13.32;;;;;;;32.80;27.29;95410.47;5050107;28;20214;-72
2022/10/25 09:03:15;;;;;;;37.15;14.73;;;;;;;31.74;28.50;95407.75;5050321;28;20210;-71
2022/10/25 09:05:50;;;;;;;29.48;10.60;;;;;;;32.51;27.57;95416.44;5050258;28;20203;-73
2022/10/25 09:08:39;;;;;;;35.63;11.85;;;;;;;31.06;29.43;95424.06;5050053;28;20275;-71
2022/10/25 09:11:17;;;;;;;37.22;12.80;;;;;;;31.79;28.53;95416.78;5050284;28;20210;-72
2022/10/25 09:13:51;;;;;;;34.58;12.63;;;;;;;31.82;28.51;95420.88;5048931;28;20267;-72
2022/10/25 09:16:21;;;;;;;28.55;11.55;;;;;;;31.51;28.54;95423.44;5050997;28;20232;-72
2022/10/25 09:18:50;;;;;;;29.90;12.35;;;;;;;31.04;29.40;95426.88;5049543;28;20206;-71
2022/10/25 09:21:21;;;;;;;31.08;12.18;;;;;;;29.61;30.94;95420.38;5050098;28;20214;-72
2022/10/25 09:24:13;;;;;;;40.60;11.18;;;;;;;29.52;31.42;95422.16;5048532;28;20233;-72
2022/10/25 09:26:45;;;;;;;33.75;11.95;;;;;;;29.68;31.60;95422.22;5048551;28;20319;-73
2022/10/25 09:29:23;;;;;;;32.38;12.63;;;;;;;29.48;32.07;95410.34;5048475;28;20232;-71
2022/10/25 09:31:53;;;;;;;42.80;13.35;;;;;;;28.87;33.65;95413.16;5052159;28;20205;-72
2022/10/25 09:34:22;;;;;;;29.35;13.35;;;;;;;28.81;34.02;95411.16;5051431;28;20263;-73
2022/10/25 09:36:55;;;;;;;33.08;13.30;;;;;;;29.05;33.55;95403.44;5054487;28;20191;-72
2022/10/25 09:39:32;;;;;;;38.00;14.63;;;;;;;27.97;35.09;95404.56;5054714;28;20213;-72
2022/10/25 09:41:59;;;;;;;44.47;14.73;;;;;;;26.67;37.27;95396.94;5053941;28;20595;-74
2022/10/25 09:44:39;;;;;;;35.25;11.30;;;;;;;25.81;38.67;95396.00;5052406;28;20214;-72
2022/10/25 09:47:18;;;;;;;38.58;12.07;;;;;;;26.02;38.93;95388.06;5053117;28;20226;-72
2022/10/25 09:49:52;;;;;;;41.65;13.70;;;;;;;25.62;39.46;95388.97;5053418;28;20210;-72
2022/10/25 09:52:24;;;;;;;31.17;13.10;;;;;;;25.27;40.02;95386.00;5050931;28;20964;-72
2022/10/25 09:54:57;;;;;;;28.67;11.55;;;;;;;24.82;41.37;95386.38;5049868;28;20229;-71
2022/10/25 09:57:24;;;;;;;25.95;11.32;;;;;;;24.47;42.36;95381.56;5051688;28;20206;-72
2022/10/25 09:59:51;;;;;;;31.92;11.75;;;;;;;24.45;42.74;95380.03;5052907;28;20214;-72
2022/10/25 10:02:23;;;;;;;43.85;12.73;;;;;;;24.34;43.17;95376.56;5051163;28;20273;-69
2022/10/25 10:04:50;;;;;;;33.88;10.95;;;;;;;24.31;44.69;95370.78;5050841;28;20282;-70
2022/10/25 10:07:22;;;;;;;42.58;22.90;;;;;;;24.34;43.75;95373.94;5051125;28;20232;-71
2022/10/25 10:09:53;;;;;;;32.38;12.25;;;;;;;24.20;43.35;95356.06;5050107;28;20260;-71
2022/10/25 10:12:25;;;;;;;26.10;10.75;;;;;;;24.22;44.78;95356.78;5051252;28;20267;-71
2022/10/25 10:14:57;;;;;;;32.38;12.43;;;;;;;24.07;44.35;95355.41;5050550;28;20632;-69
2022/10/25 10:17:24;;;;;;;33.70;11.98;;;;;;;24.12;44.18;95353.28;5050764;28;20274;-69
2022/10/25 10:20:11;;;;;;;32.63;11.82;;;;;;;24.03;44.65;95348.81;5050710;28;20217;-69
2022/10/25 10:22:44;;;;;;;33.30;10.82;;;;;;;23.94;44.86;95345.22;5050338;28;20330;-69
2022/10/25 10:25:19;;;;;;;32.97;11.18;;;;;;;23.96;45.20;95339.91;5050495;28;20206;-69
2022/10/25 10:27:48;;;;;;;34.85;11.75;;;;;;;23.93;44.32;95334.97;5050264;28;20230;-71
2022/10/25 10:30:25;;;;;;;35.53;10.45;;;;;;;23.86;43.67;95339.00;5050497;28;20334;-71
2022/10/25 10:32:57;;;;;;;31.00;9.57;;;;;;;24.00;44.16;95330.94;5050511;28;20672;-72
2022/10/25 10:35:30;;;;;;;30.42;10.95;;;;;;;23.99;43.79;95329.28;5050662;28;20303;-71
2022/10/25 10:38:23;;;;;;;42.53;10.93;;;;;;;23.90;43.19;95317.06;5050507;28;20741;-72
2022/10/25 10:40:52;;;;;;;28.90;10.38;;;;;;;23.77;43.16;95311.19;5051026;28;20210;-72
2022/10/25 10:43:28;;;;;;;24.90;10.63;;;;;;;23.75;43.92;95316.53;5050740;28;20215;-72
2022/10/25 10:46:00;;;;;;;22.25;9.35;;;;;;;23.84;44.19;95314.94;5050312;28;20785;-72
2022/10/25 10:48:33;;;;;;;38.63;10.23;;;;;;;23.89;43.10;95305.03;5050196;28;20226;-72
2022/10/25 10:51:00;;;;;;;28.55;8.50;;;;;;;23.97;42.99;95305.22;5052602;28;20660;-71
2022/10/25 10:53:31;;;;;;;32.88;10.63;;;;;;;24.05;43.34;95303.63;5053462;28;20206;-73
2022/10/25 10:56:01;;;;;;;31.13;10.13;;;;;;;24.14;43.36;95298.63;5052275;28;20307;-73
2022/10/25 10:58:30;;;;;;;22.95;9.20;;;;;;;24.19;42.22;95297.28;5052286;28;21546;-74
2022/10/25 11:00:59;;;;;;;30.25;7.88;;;;;;;24.13;41.84;95299.56;5053257;28;20292;-75
2022/10/25 11:03:46;;;;;;;25.42;8.63;;;;;;;24.11;42.21;95291.09;5052900;28;20199;-73
2022/10/25 11:06:17;;;;;;;27.55;9.15;;;;;;;24.07;43.04;95280.94;5052611;28;20198;-73
2022/10/25 11:08:46;;;;;;;27.60;8.23;;;;;;;24.09;41.43;95288.59;5051201;28;20321;-73
2022/10/25 11:11:16;;;;;;;28.20;7.63;;;;;;;24.17;42.13;95286.22;5052181;28;20311;-74
2022/10/25 11:13:51;;;;;;;24.60;7.55;;;;;;;24.34;40.39;95267.44;5052152;28;20218;-74
2022/10/25 11:16:32;;;;;;;27.58;8.82;;;;;;;24.31;40.76;95272.91;5052142;28;20271;-73
2022/10/25 11:19:29;;;;;;;21.80;7.35;;;;;;;24.41;41.28;95268.59;5050964;28;20206;-74
2022/10/25 11:22:11;;;;;;;23.02;6.85;;;;;;;24.50;40.49;95271.38;5048137;28;20210;-73
2022/10/25 11:24:50;;;;;;;24.75;5.95;;;;;;;24.53;37.61;95271.06;5052458;28;20676;-74
2022/10/25 11:27:29;;;;;;;15.50;6.72;;;;;;;24.62;37.79;95265.09;5051239;28;20237;-73
2022/10/25 11:30:09;;;;;;;18.60;5.07;;;;;;;24.71;36.96;95259.94;5052162;28;20467;-73